createdAt,value
2019-02-09T00:03:36.409Z,100732.70
2019-02-09T00:07:44.307Z,100739.62
2019-02-09T00:11:52.208Z,100735.97
2019-02-09T00:15:59.905Z,100737.88
2019-02-09T00:20:08.240Z,100748.76
2019-02-09T00:24:16.154Z,100748.89
2019-02-09T00:28:24.126Z,100751.48
2019-02-09T00:32:31.613Z,100756.50
2019-02-09T00:36:39.504Z,100762.03
2019-02-09T00:40:47.232Z,100756.85
2019-02-09T00:44:54.718Z,100763.09
2019-02-09T00:49:02.483Z,100760.47
2019-02-09T00:53:10.377Z,100756.27
2019-02-09T00:57:18.285Z,100755.43
2019-02-09T01:01:26.180Z,100759.11
2019-02-09T01:05:37.286Z,100757.42
2019-02-09T01:09:44.797Z,100753.48
2019-02-09T01:13:52.410Z,100749.37
2019-02-09T01:18:00.017Z,100746.30
2019-02-09T01:22:07.667Z,100746.08
2019-02-09T01:26:15.644Z,100746.92
2019-02-09T01:30:24.901Z,100738.43
2019-02-09T01:34:32.406Z,100738.56
2019-02-09T01:38:40.024Z,100733.11
2019-02-09T01:42:47.821Z,100726.39
2019-02-09T01:46:55.424Z,100718.12
2019-02-09T01:51:03.067Z,100719.77
2019-02-09T01:55:10.918Z,100715.90
2019-02-09T01:59:18.795Z,100711.56
2019-02-09T02:03:26.706Z,100714.31
2019-02-09T02:07:34.316Z,100710.80
2019-02-09T02:11:41.918Z,100703.20
2019-02-09T02:15:49.937Z,100709.27
2019-02-09T02:19:57.845Z,100702.59
2019-02-09T02:24:05.463Z,100707.48
2019-02-09T02:28:13.366Z,100705.59
2019-02-09T02:32:21.977Z,100710.69
2019-02-09T02:36:29.985Z,100714.66
2019-02-09T02:40:37.798Z,100714.76
2019-02-09T02:44:45.406Z,100724.48
2019-02-09T02:48:53.389Z,100733.76
2019-02-09T02:53:01.140Z,100734.55
2019-02-09T02:57:09.024Z,100732.61
2019-02-09T03:01:17.535Z,100733.20
2019-02-09T03:05:25.757Z,100730.19
2019-02-09T03:09:33.459Z,100733.53
2019-02-09T03:13:41.372Z,100736.41
2019-02-09T03:17:49.064Z,100738.78
2019-02-09T03:21:56.751Z,100735.29
2019-02-09T03:26:04.765Z,100733.88
2019-02-09T03:30:13.998Z,100736.20
2019-02-09T03:34:21.906Z,100739.08
2019-02-09T03:38:30.025Z,100733.22
2019-02-09T03:42:37.949Z,100740.36
2019-02-09T03:46:46.380Z,100745.86
2019-02-09T03:50:53.904Z,100737.97
2019-02-09T03:55:01.822Z,100740.44
2019-02-09T03:59:09.729Z,100742.34
2019-02-09T04:03:17.930Z,100742.64
2019-02-09T04:07:25.845Z,100739.70
2019-02-09T04:11:33.746Z,100740.77
2019-02-09T04:15:41.441Z,100739.19
2019-02-09T04:19:49.352Z,100741.97
2019-02-09T04:23:57.241Z,100741.19
2019-02-09T04:28:05.257Z,100741.44
2019-02-09T04:32:13.634Z,100738.89
2019-02-09T04:36:21.606Z,100739.70
2019-02-09T04:40:31.115Z,100735.61
2019-02-09T04:44:39.568Z,100741.86
2019-02-09T04:48:47.453Z,100739.36
2019-02-09T04:52:55.663Z,100742.22
2019-02-09T04:57:03.555Z,100744.00
2019-02-09T05:01:13.968Z,100748.44
2019-02-09T05:05:21.173Z,100750.73
2019-02-09T05:09:29.075Z,100751.00
2019-02-09T05:13:36.996Z,100751.56
2019-02-09T05:17:46.751Z,100747.97
2019-02-09T05:21:54.970Z,100749.44
2019-02-09T05:26:02.665Z,100753.58
2019-02-09T05:30:13.962Z,100746.07
2019-02-09T05:34:21.878Z,100737.14
2019-02-09T05:38:29.779Z,100742.89
2019-02-09T05:42:38.274Z,100745.90
2019-02-09T05:46:46.181Z,100748.76
2019-02-09T05:50:54.009Z,100748.28
2019-02-09T05:55:01.504Z,100746.88
2019-02-09T05:59:09.204Z,100745.22
2019-02-09T06:03:17.093Z,100743.86
2019-02-09T06:07:24.999Z,100754.05
2019-02-09T06:11:32.892Z,100752.43
2019-02-09T06:15:40.595Z,100746.83
2019-02-09T06:19:48.503Z,100751.73
2019-02-09T06:23:56.956Z,100748.64
2019-02-09T06:28:04.928Z,100753.88
2019-02-09T06:32:12.893Z,100757.38
2019-02-09T06:36:20.818Z,100750.55
2019-02-09T06:40:29.387Z,100754.20
2019-02-09T06:44:36.884Z,100751.41
2019-02-09T06:48:44.843Z,100750.87
2019-02-09T06:52:52.754Z,100744.25
2019-02-09T06:57:00.653Z,100750.48
2019-02-09T07:01:08.582Z,100754.66
2019-02-09T07:05:18.111Z,100761.97
2019-02-09T07:09:27.546Z,100769.49
2019-02-09T07:13:35.457Z,100768.15
2019-02-09T07:17:43.360Z,100765.83
2019-02-09T07:21:51.262Z,100772.16
2019-02-09T07:25:59.162Z,100765.94
2019-02-09T07:30:09.271Z,100770.00
2019-02-09T07:34:17.187Z,100773.44
2019-02-09T07:38:25.111Z,100773.16
2019-02-09T07:42:32.613Z,100776.16
2019-02-09T07:46:40.338Z,100769.98
2019-02-09T07:50:48.174Z,100771.75
2019-02-09T07:54:55.981Z,100768.91
2019-02-09T07:59:03.498Z,100775.77
2019-02-09T08:03:11.229Z,100769.91
2019-02-09T08:07:19.142Z,100770.63
2019-02-09T08:11:27.048Z,100773.06
2019-02-09T08:15:35.059Z,100767.53
2019-02-09T08:19:42.760Z,100769.19
2019-02-09T08:23:50.847Z,100768.34
2019-02-09T08:27:59.504Z,100768.39
2019-02-09T08:32:12.633Z,100764.31
2019-02-09T08:36:17.322Z,100764.95
2019-02-09T08:40:25.223Z,100771.61
2019-02-09T08:44:33.181Z,100763.66
2019-02-09T08:48:41.197Z,100770.80
2019-02-09T08:52:49.140Z,100764.42
2019-02-09T08:56:57.043Z,100760.84
2019-02-09T09:01:06.331Z,100765.69
2019-02-09T09:05:14.347Z,100769.83
2019-02-09T09:09:22.108Z,100771.23
2019-02-09T09:13:30.006Z,100761.23
2019-02-09T09:17:37.934Z,100764.54
2019-02-09T09:21:45.835Z,100764.35
2019-02-09T09:25:53.884Z,100757.20
2019-02-09T09:30:01.392Z,100757.09
2019-02-09T09:34:09.312Z,100765.22
2019-02-09T09:38:17.768Z,100763.88
2019-02-09T09:42:25.382Z,100758.59
2019-02-09T09:46:32.986Z,100755.81
2019-02-09T09:50:40.985Z,100747.16
2019-02-09T09:54:48.886Z,100747.61
2019-02-09T09:58:56.790Z,100746.50
2019-02-09T10:03:05.381Z,100739.97
2019-02-09T10:07:13.316Z,100731.69
2019-02-09T10:11:20.918Z,100721.34
2019-02-09T10:15:28.898Z,100721.58
2019-02-09T10:19:36.606Z,100703.29
2019-02-09T10:23:45.434Z,100703.79
2019-02-09T10:27:55.070Z,100695.19
2019-02-09T10:32:03.004Z,100693.59
2019-02-09T10:36:10.898Z,100689.84
2019-02-09T10:40:24.027Z,100681.10
2019-02-09T10:44:33.041Z,100678.47
2019-02-09T10:48:40.955Z,100675.45
2019-02-09T10:52:48.660Z,100674.16
2019-02-09T10:56:56.627Z,100670.81
2019-02-09T11:01:11.933Z,100665.16
2019-02-09T11:05:20.158Z,100660.11
2019-02-09T11:09:28.227Z,100663.04
2019-02-09T11:13:36.237Z,100647.86
2019-02-09T11:17:44.149Z,100647.81
2019-02-09T11:21:52.070Z,100641.56
2019-02-09T11:25:59.673Z,100642.75
2019-02-09T11:30:10.110Z,100645.77
2019-02-09T11:34:18.029Z,100644.37
2019-02-09T11:38:26.942Z,100629.02
2019-02-09T11:42:34.846Z,100631.66
2019-02-09T11:46:42.767Z,100629.02
2019-02-09T11:50:50.364Z,100629.52
2019-02-09T11:54:58.068Z,100623.38
2019-02-09T11:59:06.113Z,100621.59
2019-02-09T12:03:16.078Z,100622.30
2019-02-09T12:07:24.038Z,100612.89
2019-02-09T12:11:31.929Z,100610.91
2019-02-09T12:15:40.010Z,100604.54
2019-02-09T12:19:47.520Z,100609.11
2019-02-09T12:23:55.412Z,100599.93
2019-02-09T12:28:03.523Z,100593.02
2019-02-09T12:32:11.432Z,100593.69
2019-02-09T12:36:19.130Z,100591.70
2019-02-09T12:40:30.706Z,100588.31
2019-02-09T12:44:38.317Z,100587.98
2019-02-09T12:48:46.236Z,100580.83
2019-02-09T12:52:54.156Z,100576.23
2019-02-09T12:57:02.070Z,100574.12
2019-02-09T13:01:09.997Z,100572.87
2019-02-09T13:05:18.126Z,100565.58
2019-02-09T13:09:26.511Z,100566.25
2019-02-09T13:13:34.427Z,100566.75
2019-02-09T13:17:42.335Z,100568.56
2019-02-09T13:21:50.246Z,100561.77
2019-02-09T13:25:58.475Z,100565.94
2019-02-09T13:30:09.103Z,100562.38
2019-02-09T13:34:17.022Z,100565.06
2019-02-09T13:38:24.632Z,100562.23
2019-02-09T13:42:32.536Z,100558.09
2019-02-09T13:46:40.149Z,100557.08
2019-02-09T13:50:48.100Z,100553.52
2019-02-09T13:54:55.702Z,100558.58
2019-02-09T13:59:03.225Z,100553.88
2019-02-09T14:03:11.360Z,100565.06
2019-02-09T14:07:19.331Z,100567.05
2019-02-09T14:11:27.263Z,100573.75
2019-02-09T14:15:35.241Z,100568.98
2019-02-09T14:19:43.754Z,100563.98
2019-02-09T14:23:52.482Z,100564.46
2019-02-09T14:28:02.136Z,100564.53
2019-02-09T14:32:10.054Z,100560.09
2019-02-09T14:36:17.674Z,100561.34
2019-02-09T14:40:29.664Z,100559.39
2019-02-09T14:44:37.585Z,100560.30
2019-02-09T14:48:45.182Z,100562.27
2019-02-09T14:52:52.811Z,100555.55
2019-02-09T14:57:00.748Z,100567.31
2019-02-09T15:01:08.790Z,100566.48
2019-02-09T15:05:16.704Z,100568.72
2019-02-09T15:09:24.688Z,100571.75
2019-02-09T15:13:32.403Z,100577.41
2019-02-09T15:17:40.345Z,100574.09
2019-02-09T15:21:48.279Z,100576.98
2019-02-09T15:25:56.314Z,100577.44
2019-02-09T15:30:05.351Z,100578.30
2019-02-09T15:34:13.321Z,100578.30
2019-02-09T15:38:21.272Z,100585.09
2019-02-09T15:42:29.184Z,100586.95
2019-02-09T15:46:37.091Z,100597.41
2019-02-09T15:50:44.718Z,100597.20
2019-02-09T15:54:52.249Z,100599.59
2019-02-09T15:59:00.999Z,100610.34
2019-02-09T16:03:08.943Z,100615.78
2019-02-09T16:07:16.948Z,100616.02
2019-02-09T16:11:24.886Z,100615.27
2019-02-09T16:15:32.864Z,100626.96
2019-02-09T16:19:40.383Z,100623.52
2019-02-09T16:23:48.356Z,100630.05
2019-02-09T16:27:56.390Z,100633.84
2019-02-09T16:32:04.993Z,100630.89
2019-02-09T16:36:12.945Z,100642.01
2019-02-09T16:40:24.019Z,100647.25
2019-02-09T16:44:31.539Z,100649.13
2019-02-09T16:48:39.762Z,100656.27
2019-02-09T16:52:47.681Z,100661.75
2019-02-09T16:56:55.598Z,100652.61
2019-02-09T17:01:05.327Z,100652.75
2019-02-09T17:05:13.497Z,100644.82
2019-02-09T17:09:21.862Z,100638.78
2019-02-09T17:13:29.607Z,100651.57
2019-02-09T17:17:37.343Z,100648.08
2019-02-09T17:21:44.961Z,100640.80
2019-02-09T17:25:52.584Z,100640.68
2019-02-09T17:30:00.382Z,100643.30
2019-02-09T17:34:08.403Z,100639.29
2019-02-09T17:38:16.985Z,100641.47
2019-02-09T17:42:24.624Z,100635.81
2019-02-09T17:46:32.146Z,100634.24
2019-02-09T17:50:39.816Z,100632.59
2019-02-09T17:54:47.523Z,100638.72
2019-02-09T17:58:55.959Z,100640.37
2019-02-09T18:03:04.811Z,100646.98
2019-02-09T18:07:12.734Z,100653.18
2019-02-09T18:11:20.446Z,100647.77
2019-02-09T18:15:28.371Z,100645.04
2019-02-09T18:19:35.998Z,100648.84
2019-02-09T18:23:43.915Z,100650.94
2019-02-09T18:27:52.068Z,100648.62
2019-02-09T18:31:59.998Z,100641.58
2019-02-09T18:36:08.051Z,100643.59
2019-02-09T18:40:18.163Z,100648.70
2019-02-09T18:44:25.991Z,100653.27
2019-02-09T18:48:33.946Z,100652.19
2019-02-09T18:52:41.975Z,100661.21
2019-02-09T18:56:49.981Z,100660.52
2019-02-09T19:00:57.577Z,100655.73
2019-02-09T19:05:06.945Z,100661.14
2019-02-09T19:09:15.730Z,100660.66
2019-02-09T19:13:23.728Z,100661.59
2019-02-09T19:17:31.337Z,100650.69
2019-02-09T19:21:39.396Z,100649.32
2019-02-09T19:25:47.100Z,100641.97
2019-02-09T19:29:54.795Z,100642.27
2019-02-09T19:34:02.865Z,100639.33
2019-02-09T19:38:10.786Z,100638.25
2019-02-09T19:42:18.753Z,100645.44
2019-02-09T19:46:26.665Z,100639.89
2019-02-09T19:50:34.590Z,100625.83
2019-02-09T19:54:43.102Z,100628.22
2019-02-09T19:58:51.116Z,100636.02
2019-02-09T20:02:59.179Z,100634.33
2019-02-09T20:07:07.176Z,100635.23
2019-02-09T20:11:14.939Z,100635.67
2019-02-09T20:15:22.666Z,100643.48
2019-02-09T20:19:30.561Z,100637.95
2019-02-09T20:23:38.173Z,100644.84
2019-02-09T20:27:45.726Z,100640.53
2019-02-09T20:31:53.637Z,100643.00
2019-02-09T20:36:01.269Z,100641.97
2019-02-09T20:40:14.195Z,100635.86
2019-02-09T20:44:22.082Z,100633.63
2019-02-09T20:48:30.065Z,100630.47
2019-02-09T20:52:37.985Z,100633.16
2019-02-09T20:56:45.537Z,100632.67
2019-02-09T21:00:53.485Z,100635.34
2019-02-09T21:05:01.433Z,100635.27
2019-02-09T21:09:09.820Z,100635.70
2019-02-09T21:13:17.762Z,100635.33
2019-02-09T21:17:25.665Z,100626.27
2019-02-09T21:21:33.362Z,100616.58
2019-02-09T21:25:42.760Z,100616.11
2019-02-09T21:29:50.731Z,100622.29
2019-02-09T21:33:58.642Z,100618.97
2019-02-09T21:38:07.641Z,100623.23
2019-02-09T21:42:15.528Z,100625.18
2019-02-09T21:46:23.124Z,100625.44
2019-02-09T21:50:32.958Z,100631.83
2019-02-09T21:54:40.493Z,100627.35
2019-02-09T21:58:49.066Z,100631.50
2019-02-09T22:02:57.063Z,100626.11
2019-02-09T22:07:04.946Z,100630.64
2019-02-09T22:11:12.911Z,100633.91
2019-02-09T22:15:23.431Z,100631.03
2019-02-09T22:19:30.961Z,100628.85
2019-02-09T22:23:38.937Z,100632.63
2019-02-09T22:27:47.423Z,100632.23
2019-02-09T22:31:55.030Z,100630.67
2019-02-09T22:36:02.596Z,100628.02
2019-02-09T22:40:16.752Z,100625.43
2019-02-09T22:44:24.671Z,100627.22
2019-02-09T22:48:32.628Z,100625.43
2019-02-09T22:52:40.512Z,100617.20
2019-02-09T22:56:48.423Z,100617.52
2019-02-09T23:01:42.984Z,100610.27
2019-02-09T23:06:38.851Z,100613.81
2019-02-09T23:10:46.737Z,100613.59
2019-02-09T23:14:54.637Z,100617.55
2019-02-09T23:19:03.030Z,100615.84
2019-02-09T23:23:11.739Z,100626.11
2019-02-09T23:27:19.644Z,100631.83
2019-02-09T23:31:27.545Z,100629.20
2019-02-09T23:35:35.432Z,100627.16
2019-02-09T23:39:42.971Z,100630.04
2019-02-09T23:43:50.896Z,100634.17
2019-02-09T23:47:58.766Z,100631.35
2019-02-09T23:52:06.659Z,100630.52
2019-02-09T23:56:14.547Z,100635.27
